sensor_id;sensor_type;location;lat;lon;timestamp;temperature;humidity
80495;DHT22;69819;48.798;11.770;2023-09-12T00:00:01;21.40;53.60
80495;DHT22;69819;48.798;11.770;2023-09-12T00:02:26;21.30;53.50
80495;DHT22;69819;48.798;11.770;2023-09-12T00:04:54;21.40;53.60
80495;DHT22;69819;48.798;11.770;2023-09-12T00:07:20;21.30;53.50
80495;DHT22;69819;48.798;11.770;2023-09-12T00:09:46;21.30;53.50
80495;DHT22;69819;48.798;11.770;2023-09-12T00:12:14;21.30;53.50
80495;DHT22;69819;48.798;11.770;2023-09-12T00:14:41;21.30;53.80
80495;DHT22;69819;48.798;11.770;2023-09-12T00:17:07;21.20;53.50
80495;DHT22;69819;48.798;11.770;2023-09-12T00:19:32;21.20;53.50
80495;DHT22;69819;48.798;11.770;2023-09-12T00:21:58;21.20;53.50
80495;DHT22;69819;48.798;11.770;2023-09-12T00:24:24;21.20;53.50
80495;DHT22;69819;48.798;11.770;2023-09-12T00:26:50;21.20;53.50
80495;DHT22;69819;48.798;11.770;2023-09-12T00:29:16;21.10;53.40
80495;DHT22;69819;48.798;11.770;2023-09-12T00:31:42;21.10;53.40
80495;DHT22;69819;48.798;11.770;2023-09-12T00:34:08;21.10;53.40
80495;DHT22;69819;48.798;11.770;2023-09-12T00:36:33;21.00;53.30
80495;DHT22;69819;48.798;11.770;2023-09-12T00:38:59;21.00;54.10
80495;DHT22;69819;48.798;11.770;2023-09-12T00:41:25;20.90;53.40
80495;DHT22;69819;48.798;11.770;2023-09-12T00:43:51;20.90;53.50
80495;DHT22;69819;48.798;11.770;2023-09-12T00:46:19;20.80;53.50
80495;DHT22;69819;48.798;11.770;2023-09-12T00:48:48;20.80;53.70
80495;DHT22;69819;48.798;11.770;2023-09-12T00:51:15;20.80;53.70
80495;DHT22;69819;48.798;11.770;2023-09-12T00:53:43;20.70;53.70
80495;DHT22;69819;48.798;11.770;2023-09-12T00:56:09;20.70;53.80
80495;DHT22;69819;48.798;11.770;2023-09-12T00:58:36;20.60;53.80
80495;DHT22;69819;48.798;11.770;2023-09-12T01:01:02;20.60;53.90
80495;DHT22;69819;48.798;11.770;2023-09-12T01:03:28;20.60;54.00
80495;DHT22;69819;48.798;11.770;2023-09-12T01:05:56;20.50;54.00
80495;DHT22;69819;48.798;11.770;2023-09-12T01:08:24;20.50;54.30
80495;DHT22;69819;48.798;11.770;2023-09-12T01:10:50;20.50;54.30
80495;DHT22;69819;48.798;11.770;2023-09-12T01:13:19;20.40;54.80
80495;DHT22;69819;48.798;11.770;2023-09-12T01:15:45;20.40;54.30
80495;DHT22;69819;48.798;11.770;2023-09-12T01:18:11;20.40;54.30
80495;DHT22;69819;48.798;11.770;2023-09-12T01:20:39;20.40;54.30
80495;DHT22;69819;48.798;11.770;2023-09-12T01:26:49;20.40;55.30
80495;DHT22;69819;48.798;11.770;2023-09-12T01:29:35;20.30;55.00
80495;DHT22;69819;48.798;11.770;2023-09-12T01:32:02;20.30;54.20
80495;DHT22;69819;48.798;11.770;2023-09-12T01:34:29;20.30;54.20
80495;DHT22;69819;48.798;11.770;2023-09-12T01:36:55;20.20;54.30
80495;DHT22;69819;48.798;11.770;2023-09-12T01:39:21;20.20;54.50
80495;DHT22;69819;48.798;11.770;2023-09-12T01:41:47;20.20;54.70
80495;DHT22;69819;48.798;11.770;2023-09-12T01:44:15;20.20;54.80
80495;DHT22;69819;48.798;11.770;2023-09-12T01:46:42;20.10;54.80
80495;DHT22;69819;48.798;11.770;2023-09-12T01:49:10;20.10;54.90
80495;DHT22;69819;48.798;11.770;2023-09-12T01:51:38;20.10;55.00
80495;DHT22;69819;48.798;11.770;2023-09-12T01:54:06;20.10;55.00
80495;DHT22;69819;48.798;11.770;2023-09-12T01:56:33;20.00;55.00
80495;DHT22;69819;48.798;11.770;2023-09-12T01:59:00;20.00;55.00
80495;DHT22;69819;48.798;11.770;2023-09-12T02:01:27;20.00;55.00
80495;DHT22;69819;48.798;11.770;2023-09-12T02:03:53;20.00;55.00
80495;DHT22;69819;48.798;11.770;2023-09-12T02:06:19;20.00;55.10
80495;DHT22;69819;48.798;11.770;2023-09-12T02:08:45;20.00;55.20
80495;DHT22;69819;48.798;11.770;2023-09-12T02:11:11;20.00;55.20
80495;DHT22;69819;48.798;11.770;2023-09-12T02:13:37;20.00;55.30
80495;DHT22;69819;48.798;11.770;2023-09-12T02:16:02;20.00;55.40
80495;DHT22;69819;48.798;11.770;2023-09-12T02:18:28;20.00;55.30
80495;DHT22;69819;48.798;11.770;2023-09-12T02:20:54;20.00;55.40
80495;DHT22;69819;48.798;11.770;2023-09-12T02:23:21;19.90;55.20
80495;DHT22;69819;48.798;11.770;2023-09-12T02:25:47;20.00;55.40
80495;DHT22;69819;48.798;11.770;2023-09-12T02:28:13;20.00;55.30
80495;DHT22;69819;48.798;11.770;2023-09-12T02:30:39;19.90;55.30
80495;DHT22;69819;48.798;11.770;2023-09-12T02:33:08;19.90;55.40
80495;DHT22;69819;48.798;11.770;2023-09-12T02:35:34;20.00;55.40
80495;DHT22;69819;48.798;11.770;2023-09-12T02:38:00;20.00;55.50
80495;DHT22;69819;48.798;11.770;2023-09-12T02:40:25;19.90;55.40
80495;DHT22;69819;48.798;11.770;2023-09-12T02:42:52;19.90;55.50
80495;DHT22;69819;48.798;11.770;2023-09-12T02:45:17;19.90;55.50
80495;DHT22;69819;48.798;11.770;2023-09-12T02:47:43;19.90;55.50
80495;DHT22;69819;48.798;11.770;2023-09-12T02:50:11;19.90;55.50
80495;DHT22;69819;48.798;11.770;2023-09-12T02:52:37;19.90;55.60
80495;DHT22;69819;48.798;11.770;2023-09-12T02:55:03;19.90;55.60
80495;DHT22;69819;48.798;11.770;2023-09-12T02:57:29;19.90;55.60
80495;DHT22;69819;48.798;11.770;2023-09-12T02:59:55;19.90;55.60
80495;DHT22;69819;48.798;11.770;2023-09-12T03:02:21;19.90;55.60
80495;DHT22;69819;48.798;11.770;2023-09-12T03:04:47;19.80;55.50
80495;DHT22;69819;48.798;11.770;2023-09-12T03:07:13;19.90;55.50
80495;DHT22;69819;48.798;11.770;2023-09-12T03:09:39;19.80;55.50
80495;DHT22;69819;48.798;11.770;2023-09-12T03:12:05;19.80;55.40
80495;DHT22;69819;48.798;11.770;2023-09-12T03:14:31;19.80;55.40
80495;DHT22;69819;48.798;11.770;2023-09-12T03:16:57;19.80;55.40
80495;DHT22;69819;48.798;11.770;2023-09-12T03:19:23;19.80;55.40
80495;DHT22;69819;48.798;11.770;2023-09-12T03:21:49;19.70;55.30
80495;DHT22;69819;48.798;11.770;2023-09-12T03:24:14;19.70;55.30
80495;DHT22;69819;48.798;11.770;2023-09-12T03:26:43;19.70;55.30
80495;DHT22;69819;48.798;11.770;2023-09-12T03:29:10;19.60;55.30
80495;DHT22;69819;48.798;11.770;2023-09-12T03:31:35;19.60;55.40
80495;DHT22;69819;48.798;11.770;2023-09-12T03:34:01;19.60;55.40
80495;DHT22;69819;48.798;11.770;2023-09-12T03:36:27;19.60;55.60
80495;DHT22;69819;48.798;11.770;2023-09-12T03:38:53;19.60;55.70
80495;DHT22;69819;48.798;11.770;2023-09-12T03:41:19;19.60;55.70
80495;DHT22;69819;48.798;11.770;2023-09-12T03:43:47;19.50;55.60
80495;DHT22;69819;48.798;11.770;2023-09-12T03:46:13;19.50;55.70
80495;DHT22;69819;48.798;11.770;2023-09-12T03:48:39;19.50;55.80
80495;DHT22;69819;48.798;11.770;2023-09-12T03:51:05;19.50;55.90
80495;DHT22;69819;48.798;11.770;2023-09-12T03:53:31;19.50;56.00
80495;DHT22;69819;48.798;11.770;2023-09-12T03:55:58;19.50;56.00
80495;DHT22;69819;48.798;11.770;2023-09-12T03:58:25;19.50;56.10
80495;DHT22;69819;48.798;11.770;2023-09-12T04:00:50;19.50;56.10
80495;DHT22;69819;48.798;11.770;2023-09-12T04:03:16;19.50;56.10
80495;DHT22;69819;48.798;11.770;2023-09-12T04:05:42;19.50;56.30
80495;DHT22;69819;48.798;11.770;2023-09-12T04:08:08;19.50;56.30
80495;DHT22;69819;48.798;11.770;2023-09-12T04:10:34;19.50;56.30
80495;DHT22;69819;48.798;11.770;2023-09-12T04:13:00;19.50;56.20
80495;DHT22;69819;48.798;11.770;2023-09-12T04:15:26;19.50;56.10
80495;DHT22;69819;48.798;11.770;2023-09-12T04:17:52;19.50;56.10
80495;DHT22;69819;48.798;11.770;2023-09-12T04:20:18;19.50;56.00
80495;DHT22;69819;48.798;11.770;2023-09-12T04:22:44;19.40;56.00
80495;DHT22;69819;48.798;11.770;2023-09-12T04:25:10;19.50;56.00
80495;DHT22;69819;48.798;11.770;2023-09-12T04:27:36;19.40;55.90
80495;DHT22;69819;48.798;11.770;2023-09-12T04:30:03;19.40;56.00
80495;DHT22;69819;48.798;11.770;2023-09-12T04:32:30;19.40;56.00
80495;DHT22;69819;48.798;11.770;2023-09-12T04:34:56;19.40;56.00
80495;DHT22;69819;48.798;11.770;2023-09-12T04:37:22;19.40;56.10
80495;DHT22;69819;48.798;11.770;2023-09-12T04:39:48;19.40;56.10
80495;DHT22;69819;48.798;11.770;2023-09-12T04:42:14;19.40;56.20
80495;DHT22;69819;48.798;11.770;2023-09-12T04:44:41;19.40;56.20
80495;DHT22;69819;48.798;11.770;2023-09-12T04:47:07;19.40;56.30
80495;DHT22;69819;48.798;11.770;2023-09-12T04:49:35;19.40;56.30
80495;DHT22;69819;48.798;11.770;2023-09-12T04:52:01;19.40;56.20
80495;DHT22;69819;48.798;11.770;2023-09-12T04:54:27;19.40;56.30
80495;DHT22;69819;48.798;11.770;2023-09-12T04:56:53;19.40;56.40
80495;DHT22;69819;48.798;11.770;2023-09-12T04:59:19;19.40;56.40
80495;DHT22;69819;48.798;11.770;2023-09-12T05:01:45;19.40;56.50
80495;DHT22;69819;48.798;11.770;2023-09-12T05:04:11;19.40;56.60
80495;DHT22;69819;48.798;11.770;2023-09-12T05:06:37;19.40;56.60
80495;DHT22;69819;48.798;11.770;2023-09-12T05:09:03;19.50;56.60
80495;DHT22;69819;48.798;11.770;2023-09-12T05:11:31;19.50;56.60
80495;DHT22;69819;48.798;11.770;2023-09-12T05:13:57;19.60;56.60
80495;DHT22;69819;48.798;11.770;2023-09-12T05:16:24;19.70;56.60
80495;DHT22;69819;48.798;11.770;2023-09-12T05:18:51;19.70;56.70
80495;DHT22;69819;48.798;11.770;2023-09-12T05:21:17;19.80;56.90
80495;DHT22;69819;48.798;11.770;2023-09-12T05:23:43;20.00;57.10
80495;DHT22;69819;48.798;11.770;2023-09-12T05:26:10;20.20;57.10
80495;DHT22;69819;48.798;11.770;2023-09-12T05:28:36;20.30;57.00
80495;DHT22;69819;48.798;11.770;2023-09-12T05:31:02;20.60;57.00
80495;DHT22;69819;48.798;11.770;2023-09-12T05:33:29;20.80;56.90
80495;DHT22;69819;48.798;11.770;2023-09-12T05:35:55;21.00;56.80
80495;DHT22;69819;48.798;11.770;2023-09-12T05:38:21;21.30;56.90
80495;DHT22;69819;48.798;11.770;2023-09-12T05:40:48;21.70;57.10
80495;DHT22;69819;48.798;11.770;2023-09-12T05:43:17;22.10;57.20
80495;DHT22;69819;48.798;11.770;2023-09-12T05:45:43;22.50;57.20
80495;DHT22;69819;48.798;11.770;2023-09-12T05:48:10;23.00;57.10
80495;DHT22;69819;48.798;11.770;2023-09-12T05:50:37;23.50;56.80
80495;DHT22;69819;48.798;11.770;2023-09-12T05:53:03;23.90;56.40
80495;DHT22;69819;48.798;11.770;2023-09-12T05:55:29;24.40;56.40
80495;DHT22;69819;48.798;11.770;2023-09-12T05:57:55;25.00;56.40
80495;DHT22;69819;48.798;11.770;2023-09-12T06:00:21;25.40;56.10
80495;DHT22;69819;48.798;11.770;2023-09-12T06:02:48;26.00;55.90
80495;DHT22;69819;48.798;11.770;2023-09-12T06:05:15;26.60;55.40
80495;DHT22;69819;48.798;11.770;2023-09-12T06:07:41;27.20;54.90
80495;DHT22;69819;48.798;11.770;2023-09-12T06:10:10;27.70;54.30
80495;DHT22;69819;48.798;11.770;2023-09-12T06:12:36;28.30;53.60
80495;DHT22;69819;48.798;11.770;2023-09-12T06:15:03;28.70;53.50
80495;DHT22;69819;48.798;11.770;2023-09-12T06:17:30;29.10;52.10
80495;DHT22;69819;48.798;11.770;2023-09-12T06:19:56;29.50;51.70
80495;DHT22;69819;48.798;11.770;2023-09-12T06:22:22;29.80;51.20
80495;DHT22;69819;48.798;11.770;2023-09-12T06:24:50;30.10;50.90
80495;DHT22;69819;48.798;11.770;2023-09-12T06:27:16;30.40;50.60
80495;DHT22;69819;48.798;11.770;2023-09-12T06:29:46;30.80;50.40
80495;DHT22;69819;48.798;11.770;2023-09-12T06:32:14;31.20;50.30
80495;DHT22;69819;48.798;11.770;2023-09-12T06:34:41;31.60;50.10
80495;DHT22;69819;48.798;11.770;2023-09-12T06:37:07;32.00;49.80
80495;DHT22;69819;48.798;11.770;2023-09-12T06:39:34;32.50;49.60
80495;DHT22;69819;48.798;11.770;2023-09-12T06:42:00;33.00;49.30
80495;DHT22;69819;48.798;11.770;2023-09-12T06:44:26;33.60;49.00
80495;DHT22;69819;48.798;11.770;2023-09-12T06:46:52;34.10;48.50
80495;DHT22;69819;48.798;11.770;2023-09-12T06:49:18;34.60;48.00
80495;DHT22;69819;48.798;11.770;2023-09-12T06:51:45;35.20;47.40
80495;DHT22;69819;48.798;11.770;2023-09-12T06:54:11;35.70;46.90
80495;DHT22;69819;48.798;11.770;2023-09-12T06:56:38;36.20;46.40
80495;DHT22;69819;48.798;11.770;2023-09-12T06:59:07;36.70;45.70
80495;DHT22;69819;48.798;11.770;2023-09-12T07:01:33;37.20;45.10
80495;DHT22;69819;48.798;11.770;2023-09-12T07:03:59;37.60;44.50
80495;DHT22;69819;48.798;11.770;2023-09-12T07:06:25;38.00;43.90
80495;DHT22;69819;48.798;11.770;2023-09-12T07:08:51;38.40;43.30
80495;DHT22;69819;48.798;11.770;2023-09-12T07:11:18;38.80;42.80
80495;DHT22;69819;48.798;11.770;2023-09-12T07:13:45;39.10;42.30
80495;DHT22;69819;48.798;11.770;2023-09-12T07:16:11;39.40;41.90
80495;DHT22;69819;48.798;11.770;2023-09-12T07:18:37;39.80;41.40
80495;DHT22;69819;48.798;11.770;2023-09-12T07:21:04;40.10;40.90
80495;DHT22;69819;48.798;11.770;2023-09-12T07:23:32;40.30;40.40
80495;DHT22;69819;48.798;11.770;2023-09-12T07:25:58;40.60;40.10
80495;DHT22;69819;48.798;11.770;2023-09-12T07:28:26;40.90;39.70
80495;DHT22;69819;48.798;11.770;2023-09-12T07:30:56;41.20;39.30
80495;DHT22;69819;48.798;11.770;2023-09-12T07:33:23;41.50;39.00
80495;DHT22;69819;48.798;11.770;2023-09-12T07:35:52;41.80;38.80
80495;DHT22;69819;48.798;11.770;2023-09-12T07:38:20;42.20;38.20
80495;DHT22;69819;48.798;11.770;2023-09-12T07:40:47;42.50;38.00
80495;DHT22;69819;48.798;11.770;2023-09-12T07:43:13;42.70;37.50
80495;DHT22;69819;48.798;11.770;2023-09-12T07:45:39;42.90;36.80
80495;DHT22;69819;48.798;11.770;2023-09-12T07:48:08;43.10;36.50
80495;DHT22;69819;48.798;11.770;2023-09-12T07:50:37;43.50;36.00
80495;DHT22;69819;48.798;11.770;2023-09-12T07:53:04;43.70;36.20
80495;DHT22;69819;48.798;11.770;2023-09-12T07:55:31;44.00;35.80
80495;DHT22;69819;48.798;11.770;2023-09-12T07:58:02;44.30;35.60
80495;DHT22;69819;48.798;11.770;2023-09-12T08:00:28;44.70;35.10
80495;DHT22;69819;48.798;11.770;2023-09-12T08:02:54;44.90;34.60
80495;DHT22;69819;48.798;11.770;2023-09-12T08:05:20;45.20;34.10
80495;DHT22;69819;48.798;11.770;2023-09-12T08:07:46;45.50;33.70
80495;DHT22;69819;48.798;11.770;2023-09-12T08:10:12;45.70;33.30
80495;DHT22;69819;48.798;11.770;2023-09-12T08:12:38;45.90;32.80
80495;DHT22;69819;48.798;11.770;2023-09-12T08:15:04;46.00;32.20
80495;DHT22;69819;48.798;11.770;2023-09-12T08:17:32;46.10;31.90
80495;DHT22;69819;48.798;11.770;2023-09-12T08:19:58;46.20;31.50
80495;DHT22;69819;48.798;11.770;2023-09-12T08:22:23;46.40;31.70
80495;DHT22;69819;48.798;11.770;2023-09-12T08:24:49;46.50;31.50
80495;DHT22;69819;48.798;11.770;2023-09-12T08:27:15;46.60;31.10
80495;DHT22;69819;48.798;11.770;2023-09-12T08:29:41;46.80;30.90
80495;DHT22;69819;48.798;11.770;2023-09-12T08:32:09;46.90;30.50
80495;DHT22;69819;48.798;11.770;2023-09-12T08:34:34;47.10;30.20
80495;DHT22;69819;48.798;11.770;2023-09-12T08:37:00;47.10;30.00
80495;DHT22;69819;48.798;11.770;2023-09-12T08:39:27;47.20;29.90
80495;DHT22;69819;48.798;11.770;2023-09-12T08:42:05;47.20;29.70
80495;DHT22;69819;48.798;11.770;2023-09-12T08:44:32;47.30;29.60
80495;DHT22;69819;48.798;11.770;2023-09-12T08:47:00;47.30;29.20
80495;DHT22;69819;48.798;11.770;2023-09-12T08:49:27;47.40;29.20
80495;DHT22;69819;48.798;11.770;2023-09-12T08:51:54;47.40;29.10
80495;DHT22;69819;48.798;11.770;2023-09-12T08:54:19;47.30;29.00
80495;DHT22;69819;48.798;11.770;2023-09-12T08:56:45;47.30;28.90
80495;DHT22;69819;48.798;11.770;2023-09-12T08:59:11;47.30;28.80
80495;DHT22;69819;48.798;11.770;2023-09-12T09:01:38;47.40;28.70
80495;DHT22;69819;48.798;11.770;2023-09-12T09:04:05;47.40;28.60
80495;DHT22;69819;48.798;11.770;2023-09-12T09:06:32;47.30;28.30
80495;DHT22;69819;48.798;11.770;2023-09-12T09:09:05;47.40;28.30
80495;DHT22;69819;48.798;11.770;2023-09-12T09:11:33;47.20;28.20
80495;DHT22;69819;48.798;11.770;2023-09-12T09:14:01;47.20;28.10
80495;DHT22;69819;48.798;11.770;2023-09-12T09:16:29;47.00;28.00
80495;DHT22;69819;48.798;11.770;2023-09-12T09:21:35;46.80;27.50
80495;DHT22;69819;48.798;11.770;2023-09-12T09:24:06;46.50;27.60
80495;DHT22;69819;48.798;11.770;2023-09-12T09:26:48;46.10;27.40
80495;DHT22;69819;48.798;11.770;2023-09-12T09:29:26;45.80;27.40
80495;DHT22;69819;48.798;11.770;2023-09-12T09:32:02;45.50;27.80
80495;DHT22;69819;48.798;11.770;2023-09-12T09:34:30;45.10;27.70
80495;DHT22;69819;48.798;11.770;2023-09-12T09:36:57;44.80;27.80
80495;DHT22;69819;48.798;11.770;2023-09-12T09:39:28;44.50;27.90
80495;DHT22;69819;48.798;11.770;2023-09-12T09:41:56;44.20;28.00
80495;DHT22;69819;48.798;11.770;2023-09-12T09:44:24;43.90;28.00
80495;DHT22;69819;48.798;11.770;2023-09-12T09:46:59;43.60;28.10
80495;DHT22;69819;48.798;11.770;2023-09-12T09:49:32;43.30;28.20
80495;DHT22;69819;48.798;11.770;2023-09-12T09:51:59;43.10;28.40
80495;DHT22;69819;48.798;11.770;2023-09-12T09:54:29;42.80;28.70
80495;DHT22;69819;48.798;11.770;2023-09-12T09:56:56;42.70;28.90
80495;DHT22;69819;48.798;11.770;2023-09-12T09:59:24;42.50;29.00
80495;DHT22;69819;48.798;11.770;2023-09-12T10:01:56;42.50;29.10
80495;DHT22;69819;48.798;11.770;2023-09-12T10:04:24;42.40;29.00
80495;DHT22;69819;48.798;11.770;2023-09-12T10:06:55;42.20;29.00
80495;DHT22;69819;48.798;11.770;2023-09-12T10:09:23;42.10;28.90
80495;DHT22;69819;48.798;11.770;2023-09-12T10:11:52;41.90;28.90
80495;DHT22;69819;48.798;11.770;2023-09-12T10:14:22;41.80;29.00
80495;DHT22;69819;48.798;11.770;2023-09-12T10:16:50;41.60;29.10
80495;DHT22;69819;48.798;11.770;2023-09-12T10:19:26;41.40;29.20
80495;DHT22;69819;48.798;11.770;2023-09-12T10:22:37;41.20;29.40
80495;DHT22;69819;48.798;11.770;2023-09-12T10:25:07;41.00;29.50
80495;DHT22;69819;48.798;11.770;2023-09-12T10:27:34;40.90;29.60
80495;DHT22;69819;48.798;11.770;2023-09-12T10:30:01;40.70;29.60
80495;DHT22;69819;48.798;11.770;2023-09-12T10:32:30;40.50;29.70
80495;DHT22;69819;48.798;11.770;2023-09-12T10:34:59;40.30;29.80
80495;DHT22;69819;48.798;11.770;2023-09-12T10:37:26;40.10;29.90
80495;DHT22;69819;48.798;11.770;2023-09-12T10:39:55;39.90;29.90
80495;DHT22;69819;48.798;11.770;2023-09-12T10:42:24;39.60;30.00
80495;DHT22;69819;48.798;11.770;2023-09-12T10:44:52;39.40;30.40
80495;DHT22;69819;48.798;11.770;2023-09-12T10:47:20;39.10;30.50
80495;DHT22;69819;48.798;11.770;2023-09-12T10:49:48;38.80;30.80
80495;DHT22;69819;48.798;11.770;2023-09-12T10:52:29;38.50;31.10
80495;DHT22;69819;48.798;11.770;2023-09-12T10:54:56;38.20;31.40
80495;DHT22;69819;48.798;11.770;2023-09-12T10:57:22;37.90;31.40
80495;DHT22;69819;48.798;11.770;2023-09-12T11:02:34;37.30;32.00
80495;DHT22;69819;48.798;11.770;2023-09-12T11:05:06;37.00;32.20
80495;DHT22;69819;48.798;11.770;2023-09-12T11:07:59;36.80;32.60
80495;DHT22;69819;48.798;11.770;2023-09-12T11:10:26;36.60;32.80
80495;DHT22;69819;48.798;11.770;2023-09-12T11:12:54;36.40;32.90
80495;DHT22;69819;48.798;11.770;2023-09-12T11:15:26;36.20;33.10
80495;DHT22;69819;48.798;11.770;2023-09-12T11:18:06;36.00;33.30
80495;DHT22;69819;48.798;11.770;2023-09-12T11:20:52;35.90;33.60
80495;DHT22;69819;48.798;11.770;2023-09-12T11:23:19;35.80;33.80
80495;DHT22;69819;48.798;11.770;2023-09-12T11:25:45;35.70;34.00
80495;DHT22;69819;48.798;11.770;2023-09-12T11:28:11;35.60;34.10
80495;DHT22;69819;48.798;11.770;2023-09-12T11:30:55;35.60;34.30
80495;DHT22;69819;48.798;11.770;2023-09-12T11:33:25;35.60;34.70
80495;DHT22;69819;48.798;11.770;2023-09-12T11:35:55;35.50;34.30
80495;DHT22;69819;48.798;11.770;2023-09-12T11:38:28;35.60;34.50
80495;DHT22;69819;48.798;11.770;2023-09-12T11:40:55;35.60;34.60
80495;DHT22;69819;48.798;11.770;2023-09-12T11:43:25;35.60;34.40
80495;DHT22;69819;48.798;11.770;2023-09-12T11:45:54;35.70;34.30
80495;DHT22;69819;48.798;11.770;2023-09-12T11:48:21;35.70;34.20
80495;DHT22;69819;48.798;11.770;2023-09-12T11:53:21;35.70;34.20
80495;DHT22;69819;48.798;11.770;2023-09-12T11:55:56;35.70;34.20
80495;DHT22;69819;48.798;11.770;2023-09-12T11:58:25;35.80;34.30
80495;DHT22;69819;48.798;11.770;2023-09-12T12:00:54;35.80;34.30
80495;DHT22;69819;48.798;11.770;2023-09-12T12:03:23;35.80;34.20
80495;DHT22;69819;48.798;11.770;2023-09-12T12:05:50;35.80;34.20
80495;DHT22;69819;48.798;11.770;2023-09-12T12:08:18;35.70;34.30
80495;DHT22;69819;48.798;11.770;2023-09-12T12:10:49;35.70;34.10
80495;DHT22;69819;48.798;11.770;2023-09-12T12:13:19;35.70;34.10
80495;DHT22;69819;48.798;11.770;2023-09-12T12:15:46;35.80;34.20
80495;DHT22;69819;48.798;11.770;2023-09-12T12:18:13;35.70;34.10
80495;DHT22;69819;48.798;11.770;2023-09-12T12:20:39;35.80;33.90
80495;DHT22;69819;48.798;11.770;2023-09-12T12:23:05;35.80;33.80
80495;DHT22;69819;48.798;11.770;2023-09-12T12:25:35;35.90;33.90
80495;DHT22;69819;48.798;11.770;2023-09-12T12:28:02;35.90;33.60
80495;DHT22;69819;48.798;11.770;2023-09-12T12:30:33;36.00;33.80
80495;DHT22;69819;48.798;11.770;2023-09-12T12:33:09;36.00;33.60
80495;DHT22;69819;48.798;11.770;2023-09-12T12:35:35;36.10;33.60
80495;DHT22;69819;48.798;11.770;2023-09-12T12:38:02;36.20;33.90
80495;DHT22;69819;48.798;11.770;2023-09-12T12:40:28;36.20;33.80
80495;DHT22;69819;48.798;11.770;2023-09-12T12:42:54;36.20;33.70
80495;DHT22;69819;48.798;11.770;2023-09-12T12:45:22;36.20;33.50
80495;DHT22;69819;48.798;11.770;2023-09-12T12:47:59;36.20;33.50
80495;DHT22;69819;48.798;11.770;2023-09-12T12:50:26;36.20;33.40
80495;DHT22;69819;48.798;11.770;2023-09-12T12:52:52;36.20;33.50
80495;DHT22;69819;48.798;11.770;2023-09-12T12:55:20;36.20;33.50
80495;DHT22;69819;48.798;11.770;2023-09-12T12:57:48;36.20;33.40
80495;DHT22;69819;48.798;11.770;2023-09-12T13:00:15;36.20;33.50
80495;DHT22;69819;48.798;11.770;2023-09-12T13:02:43;36.20;33.60
80495;DHT22;69819;48.798;11.770;2023-09-12T13:07:51;36.30;33.50
80495;DHT22;69819;48.798;11.770;2023-09-12T13:10:18;36.40;33.60
80495;DHT22;69819;48.798;11.770;2023-09-12T13:12:44;36.50;33.60
80495;DHT22;69819;48.798;11.770;2023-09-12T13:15:12;36.60;33.40
80495;DHT22;69819;48.798;11.770;2023-09-12T13:17:38;36.60;33.10
80495;DHT22;69819;48.798;11.770;2023-09-12T13:20:05;36.70;33.60
80495;DHT22;69819;48.798;11.770;2023-09-12T13:22:34;36.70;33.00
80495;DHT22;69819;48.798;11.770;2023-09-12T13:25:00;36.70;32.90
80495;DHT22;69819;48.798;11.770;2023-09-12T13:27:27;36.70;32.90
80495;DHT22;69819;48.798;11.770;2023-09-12T13:29:53;36.70;32.80
80495;DHT22;69819;48.798;11.770;2023-09-12T13:32:19;36.70;32.80
80495;DHT22;69819;48.798;11.770;2023-09-12T13:34:46;36.70;32.80
80495;DHT22;69819;48.798;11.770;2023-09-12T13:37:12;36.70;32.80
80495;DHT22;69819;48.798;11.770;2023-09-12T13:39:38;36.70;32.70
80495;DHT22;69819;48.798;11.770;2023-09-12T13:42:06;36.70;32.60
80495;DHT22;69819;48.798;11.770;2023-09-12T13:44:33;36.70;32.50
80495;DHT22;69819;48.798;11.770;2023-09-12T13:46:59;36.70;32.60
80495;DHT22;69819;48.798;11.770;2023-09-12T13:49:25;36.60;32.40
80495;DHT22;69819;48.798;11.770;2023-09-12T13:51:51;36.60;32.50
80495;DHT22;69819;48.798;11.770;2023-09-12T13:54:17;36.60;32.40
80495;DHT22;69819;48.798;11.770;2023-09-12T13:56:43;36.60;32.40
80495;DHT22;69819;48.798;11.770;2023-09-12T13:59:10;36.60;32.10
80495;DHT22;69819;48.798;11.770;2023-09-12T14:01:37;36.60;32.10
80495;DHT22;69819;48.798;11.770;2023-09-12T14:04:03;36.60;32.00
80495;DHT22;69819;48.798;11.770;2023-09-12T14:06:30;36.50;31.90
80495;DHT22;69819;48.798;11.770;2023-09-12T14:08:57;36.50;31.80
80495;DHT22;69819;48.798;11.770;2023-09-12T14:11:23;36.50;31.80
80495;DHT22;69819;48.798;11.770;2023-09-12T14:13:49;36.50;31.80
80495;DHT22;69819;48.798;11.770;2023-09-12T14:16:15;36.50;31.70
80495;DHT22;69819;48.798;11.770;2023-09-12T14:18:41;36.40;31.50
80495;DHT22;69819;48.798;11.770;2023-09-12T14:21:06;36.40;31.40
80495;DHT22;69819;48.798;11.770;2023-09-12T14:23:32;36.40;31.40
80495;DHT22;69819;48.798;11.770;2023-09-12T14:25:58;36.30;31.50
80495;DHT22;69819;48.798;11.770;2023-09-12T14:28:24;36.30;31.50
80495;DHT22;69819;48.798;11.770;2023-09-12T14:30:50;36.20;31.60
80495;DHT22;69819;48.798;11.770;2023-09-12T14:33:17;36.20;31.50
80495;DHT22;69819;48.798;11.770;2023-09-12T14:35:44;36.20;31.60
80495;DHT22;69819;48.798;11.770;2023-09-12T14:38:10;36.10;31.60
80495;DHT22;69819;48.798;11.770;2023-09-12T14:40:36;36.00;31.70
80495;DHT22;69819;48.798;11.770;2023-09-12T14:43:03;36.00;31.70
80495;DHT22;69819;48.798;11.770;2023-09-12T14:45:29;35.90;31.90
80495;DHT22;69819;48.798;11.770;2023-09-12T14:47:56;35.90;31.90
80495;DHT22;69819;48.798;11.770;2023-09-12T14:50:23;35.80;31.90
80495;DHT22;69819;48.798;11.770;2023-09-12T14:52:51;35.70;31.90
80495;DHT22;69819;48.798;11.770;2023-09-12T14:55:17;35.60;32.00
80495;DHT22;69819;48.798;11.770;2023-09-12T14:57:42;35.50;32.10
80495;DHT22;69819;48.798;11.770;2023-09-12T15:00:09;35.40;32.00
80495;DHT22;69819;48.798;11.770;2023-09-12T15:02:37;35.30;31.90
80495;DHT22;69819;48.798;11.770;2023-09-12T15:05:03;35.20;31.90
80495;DHT22;69819;48.798;11.770;2023-09-12T15:07:30;35.20;31.90
80495;DHT22;69819;48.798;11.770;2023-09-12T15:09:56;35.10;32.00
80495;DHT22;69819;48.798;11.770;2023-09-12T15:12:22;35.00;32.10
80495;DHT22;69819;48.798;11.770;2023-09-12T15:14:50;35.00;32.40
80495;DHT22;69819;48.798;11.770;2023-09-12T15:17:17;34.90;32.50
80495;DHT22;69819;48.798;11.770;2023-09-12T15:19:43;34.90;32.60
80495;DHT22;69819;48.798;11.770;2023-09-12T15:22:09;34.80;32.60
80495;DHT22;69819;48.798;11.770;2023-09-12T15:24:35;34.70;32.60
80495;DHT22;69819;48.798;11.770;2023-09-12T15:27:01;34.70;32.70
80495;DHT22;69819;48.798;11.770;2023-09-12T15:29:26;34.60;32.80